sensor_id;sensor_type;location;lat;lon;timestamp;P1;durP1;ratioP1;P2;durP2;ratioP2
24159;SDS011;62385;41.594;23.808;2022-12-16T00:01:17;9.53;;;5.10;;
24159;SDS011;62385;41.594;23.808;2022-12-16T00:03:50;11.93;;;4.83;;
24159;SDS011;62385;41.594;23.808;2022-12-16T00:06:17;7.57;;;5.80;;
24159;SDS011;62385;41.594;23.808;2022-12-16T00:08:43;7.53;;;4.27;;
24159;SDS011;62385;41.594;23.808;2022-12-16T00:11:10;11.17;;;5.20;;
24159;SDS011;62385;41.594;23.808;2022-12-16T00:13:37;26.47;;;6.03;;
24159;SDS011;62385;41.594;23.808;2022-12-16T00:16:05;14.00;;;5.07;;
24159;SDS011;62385;41.594;23.808;2022-12-16T00:18:32;14.90;;;4.50;;
24159;SDS011;62385;41.594;23.808;2022-12-16T00:20:58;7.60;;;5.70;;
24159;SDS011;62385;41.594;23.808;2022-12-16T00:23:25;8.07;;;4.93;;
24159;SDS011;62385;41.594;23.808;2022-12-16T00:25:52;14.30;;;4.87;;
24159;SDS011;62385;41.594;23.808;2022-12-16T00:28:18;7.00;;;4.30;;
24159;SDS011;62385;41.594;23.808;2022-12-16T00:30:47;9.47;;;5.70;;
24159;SDS011;62385;41.594;23.808;2022-12-16T00:33:15;8.83;;;4.40;;
24159;SDS011;62385;41.594;23.808;2022-12-16T00:35:42;8.87;;;4.63;;
24159;SDS011;62385;41.594;23.808;2022-12-16T00:38:08;17.07;;;5.67;;
24159;SDS011;62385;41.594;23.808;2022-12-16T00:40:34;10.90;;;3.93;;
24159;SDS011;62385;41.594;23.808;2022-12-16T00:42:59;10.77;;;5.47;;
24159;SDS011;62385;41.594;23.808;2022-12-16T00:45:25;10.10;;;5.40;;
24159;SDS011;62385;41.594;23.808;2022-12-16T00:47:50;13.43;;;5.17;;
24159;SDS011;62385;41.594;23.808;2022-12-16T00:50:17;8.73;;;3.70;;
24159;SDS011;62385;41.594;23.808;2022-12-16T00:52:44;11.13;;;4.87;;
24159;SDS011;62385;41.594;23.808;2022-12-16T00:55:10;10.50;;;5.53;;
24159;SDS011;62385;41.594;23.808;2022-12-16T00:57:36;12.50;;;6.10;;
24159;SDS011;62385;41.594;23.808;2022-12-16T01:00:02;9.23;;;5.10;;
24159;SDS011;62385;41.594;23.808;2022-12-16T01:02:29;12.20;;;5.57;;
24159;SDS011;62385;41.594;23.808;2022-12-16T01:04:56;10.57;;;6.23;;
24159;SDS011;62385;41.594;23.808;2022-12-16T01:07:21;15.80;;;7.47;;
24159;SDS011;62385;41.594;23.808;2022-12-16T01:09:47;11.33;;;6.70;;
24159;SDS011;62385;41.594;23.808;2022-12-16T01:12:12;8.37;;;5.03;;
24159;SDS011;62385;41.594;23.808;2022-12-16T01:14:38;10.43;;;5.30;;
24159;SDS011;62385;41.594;23.808;2022-12-16T01:17:04;8.27;;;5.53;;
24159;SDS011;62385;41.594;23.808;2022-12-16T01:19:29;11.47;;;5.33;;
24159;SDS011;62385;41.594;23.808;2022-12-16T01:21:55;8.17;;;5.20;;
24159;SDS011;62385;41.594;23.808;2022-12-16T01:24:21;10.87;;;5.87;;
24159;SDS011;62385;41.594;23.808;2022-12-16T01:26:48;18.87;;;4.13;;
24159;SDS011;62385;41.594;23.808;2022-12-16T01:29:13;7.37;;;4.87;;
24159;SDS011;62385;41.594;23.808;2022-12-16T01:31:39;6.70;;;3.50;;
24159;SDS011;62385;41.594;23.808;2022-12-16T01:34:04;15.27;;;5.60;;
24159;SDS011;62385;41.594;23.808;2022-12-16T01:36:30;14.73;;;6.10;;
24159;SDS011;62385;41.594;23.808;2022-12-16T01:38:56;11.67;;;5.63;;
24159;SDS011;62385;41.594;23.808;2022-12-16T01:41:21;13.73;;;4.63;;
24159;SDS011;62385;41.594;23.808;2022-12-16T01:43:47;3.90;;;3.50;;
24159;SDS011;62385;41.594;23.808;2022-12-16T01:48:53;4.87;;;3.20;;
24159;SDS011;62385;41.594;23.808;2022-12-16T01:51:25;20.53;;;5.27;;
24159;SDS011;62385;41.594;23.808;2022-12-16T01:54:07;10.23;;;3.60;;
24159;SDS011;62385;41.594;23.808;2022-12-16T01:56:39;8.77;;;5.07;;
24159;SDS011;62385;41.594;23.808;2022-12-16T01:59:10;5.47;;;3.13;;
24159;SDS011;62385;41.594;23.808;2022-12-16T02:01:40;8.17;;;4.50;;
24159;SDS011;62385;41.594;23.808;2022-12-16T02:04:06;13.57;;;5.73;;
24159;SDS011;62385;41.594;23.808;2022-12-16T02:06:32;13.90;;;4.20;;
24159;SDS011;62385;41.594;23.808;2022-12-16T02:08:58;13.77;;;6.70;;
24159;SDS011;62385;41.594;23.808;2022-12-16T02:17:18;9.33;;;5.07;;
24159;SDS011;62385;41.594;23.808;2022-12-16T02:23:10;10.37;;;5.47;;
24159;SDS011;62385;41.594;23.808;2022-12-16T02:39:19;14.73;;;5.97;;
24159;SDS011;62385;41.594;23.808;2022-12-16T02:44:33;16.10;;;7.67;;
24159;SDS011;62385;41.594;23.808;2022-12-16T02:47:07;20.30;;;6.60;;
24159;SDS011;62385;41.594;23.808;2022-12-16T02:51:59;10.43;;;4.57;;
24159;SDS011;62385;41.594;23.808;2022-12-16T02:54:26;9.47;;;6.13;;
24159;SDS011;62385;41.594;23.808;2022-12-16T03:05:20;16.70;;;6.87;;
24159;SDS011;62385;41.594;23.808;2022-12-16T03:07:51;10.43;;;5.93;;
24159;SDS011;62385;41.594;23.808;2022-12-16T03:10:20;7.60;;;5.30;;
24159;SDS011;62385;41.594;23.808;2022-12-16T03:12:53;16.70;;;6.10;;
24159;SDS011;62385;41.594;23.808;2022-12-16T03:15:22;17.43;;;6.47;;
24159;SDS011;62385;41.594;23.808;2022-12-16T03:17:50;10.10;;;5.80;;
24159;SDS011;62385;41.594;23.808;2022-12-16T03:20:21;7.93;;;5.40;;
24159;SDS011;62385;41.594;23.808;2022-12-16T03:22:52;30.00;;;8.50;;
24159;SDS011;62385;41.594;23.808;2022-12-16T03:25:20;13.00;;;6.70;;
24159;SDS011;62385;41.594;23.808;2022-12-16T03:27:58;17.13;;;7.83;;
24159;SDS011;62385;41.594;23.808;2022-12-16T03:30:38;10.97;;;6.90;;
24159;SDS011;62385;41.594;23.808;2022-12-16T03:33:10;21.47;;;5.53;;
24159;SDS011;62385;41.594;23.808;2022-12-16T03:35:50;9.98;;;6.03;;
24159;SDS011;62385;41.594;23.808;2022-12-16T03:38:23;19.03;;;5.57;;
24159;SDS011;62385;41.594;23.808;2022-12-16T03:40:51;8.60;;;6.23;;
24159;SDS011;62385;41.594;23.808;2022-12-16T03:43:19;10.73;;;6.43;;
24159;SDS011;62385;41.594;23.808;2022-12-16T03:45:45;14.40;;;6.57;;
24159;SDS011;62385;41.594;23.808;2022-12-16T03:48:20;6.93;;;6.23;;
24159;SDS011;62385;41.594;23.808;2022-12-16T03:50:47;11.47;;;6.40;;
24159;SDS011;62385;41.594;23.808;2022-12-16T03:53:13;18.00;;;7.33;;
24159;SDS011;62385;41.594;23.808;2022-12-16T03:55:38;10.23;;;5.20;;
24159;SDS011;62385;41.594;23.808;2022-12-16T03:58:06;10.30;;;4.90;;
24159;SDS011;62385;41.594;23.808;2022-12-16T04:00:31;9.20;;;4.77;;
24159;SDS011;62385;41.594;23.808;2022-12-16T04:02:57;16.37;;;4.83;;
24159;SDS011;62385;41.594;23.808;2022-12-16T04:05:23;15.47;;;6.70;;
24159;SDS011;62385;41.594;23.808;2022-12-16T04:07:49;6.97;;;5.37;;
24159;SDS011;62385;41.594;23.808;2022-12-16T04:10:15;13.17;;;6.47;;
24159;SDS011;62385;41.594;23.808;2022-12-16T04:12:41;17.67;;;8.17;;
24159;SDS011;62385;41.594;23.808;2022-12-16T04:15:25;16.47;;;6.13;;
24159;SDS011;62385;41.594;23.808;2022-12-16T04:18:14;6.73;;;4.77;;
24159;SDS011;62385;41.594;23.808;2022-12-16T04:21:01;12.17;;;6.03;;
24159;SDS011;62385;41.594;23.808;2022-12-16T04:23:47;10.40;;;6.23;;
24159;SDS011;62385;41.594;23.808;2022-12-16T04:26:34;17.47;;;6.53;;
24159;SDS011;62385;41.594;23.808;2022-12-16T04:29:20;10.00;;;5.33;;
24159;SDS011;62385;41.594;23.808;2022-12-16T04:31:45;10.50;;;5.83;;
24159;SDS011;62385;41.594;23.808;2022-12-16T04:34:11;8.50;;;5.37;;
24159;SDS011;62385;41.594;23.808;2022-12-16T04:37:00;16.13;;;7.63;;
24159;SDS011;62385;41.594;23.808;2022-12-16T04:39:45;25.60;;;6.80;;
24159;SDS011;62385;41.594;23.808;2022-12-16T04:42:29;5.77;;;3.83;;
24159;SDS011;62385;41.594;23.808;2022-12-16T04:45:14;7.43;;;3.80;;
24159;SDS011;62385;41.594;23.808;2022-12-16T04:47:59;4.70;;;3.00;;
24159;SDS011;62385;41.594;23.808;2022-12-16T04:50:43;10.10;;;3.37;;
24159;SDS011;62385;41.594;23.808;2022-12-16T04:53:28;9.93;;;5.17;;
24159;SDS011;62385;41.594;23.808;2022-12-16T04:56:12;21.83;;;5.67;;
24159;SDS011;62385;41.594;23.808;2022-12-16T04:58:57;12.20;;;5.30;;
24159;SDS011;62385;41.594;23.808;2022-12-16T05:01:42;9.43;;;4.67;;
24159;SDS011;62385;41.594;23.808;2022-12-16T05:04:26;18.13;;;4.83;;
24159;SDS011;62385;41.594;23.808;2022-12-16T05:07:10;10.47;;;5.47;;
24159;SDS011;62385;41.594;23.808;2022-12-16T05:09:55;9.60;;;4.33;;
24159;SDS011;62385;41.594;23.808;2022-12-16T05:12:39;12.40;;;5.63;;
24159;SDS011;62385;41.594;23.808;2022-12-16T05:15:23;11.63;;;8.00;;
24159;SDS011;62385;41.594;23.808;2022-12-16T05:18:13;15.83;;;5.07;;
24159;SDS011;62385;41.594;23.808;2022-12-16T05:21:00;11.17;;;6.73;;
24159;SDS011;62385;41.594;23.808;2022-12-16T05:23:45;11.37;;;7.03;;
24159;SDS011;62385;41.594;23.808;2022-12-16T05:26:31;13.37;;;6.03;;
24159;SDS011;62385;41.594;23.808;2022-12-16T05:29:16;13.77;;;6.10;;
24159;SDS011;62385;41.594;23.808;2022-12-16T05:32:00;13.87;;;6.13;;
24159;SDS011;62385;41.594;23.808;2022-12-16T05:34:44;15.27;;;5.60;;
24159;SDS011;62385;41.594;23.808;2022-12-16T05:37:28;20.60;;;7.43;;
24159;SDS011;62385;41.594;23.808;2022-12-16T05:40:13;10.93;;;5.77;;
24159;SDS011;62385;41.594;23.808;2022-12-16T05:42:57;16.47;;;4.07;;
24159;SDS011;62385;41.594;23.808;2022-12-16T05:45:41;8.33;;;5.27;;
24159;SDS011;62385;41.594;23.808;2022-12-16T05:48:26;10.63;;;6.27;;
24159;SDS011;62385;41.594;23.808;2022-12-16T05:51:11;15.97;;;6.23;;
24159;SDS011;62385;41.594;23.808;2022-12-16T05:53:55;7.27;;;3.97;;
24159;SDS011;62385;41.594;23.808;2022-12-16T05:56:39;6.47;;;4.83;;
24159;SDS011;62385;41.594;23.808;2022-12-16T05:59:23;7.83;;;4.97;;
24159;SDS011;62385;41.594;23.808;2022-12-16T06:02:07;19.27;;;6.40;;
24159;SDS011;62385;41.594;23.808;2022-12-16T06:04:54;11.13;;;6.93;;
24159;SDS011;62385;41.594;23.808;2022-12-16T06:07:38;12.30;;;6.53;;
24159;SDS011;62385;41.594;23.808;2022-12-16T06:10:27;13.70;;;5.30;;
24159;SDS011;62385;41.594;23.808;2022-12-16T06:13:11;13.70;;;6.37;;
24159;SDS011;62385;41.594;23.808;2022-12-16T06:15:55;11.90;;;5.30;;
24159;SDS011;62385;41.594;23.808;2022-12-16T06:18:39;9.33;;;4.37;;
24159;SDS011;62385;41.594;23.808;2022-12-16T06:21:24;15.17;;;5.03;;
24159;SDS011;62385;41.594;23.808;2022-12-16T06:24:08;9.23;;;5.27;;
24159;SDS011;62385;41.594;23.808;2022-12-16T06:26:56;8.23;;;5.03;;
24159;SDS011;62385;41.594;23.808;2022-12-16T06:29:43;7.63;;;5.33;;
24159;SDS011;62385;41.594;23.808;2022-12-16T06:32:49;9.23;;;5.27;;
24159;SDS011;62385;41.594;23.808;2022-12-16T06:35:34;11.00;;;5.67;;
24159;SDS011;62385;41.594;23.808;2022-12-16T06:38:20;11.57;;;6.20;;
24159;SDS011;62385;41.594;23.808;2022-12-16T06:41:04;13.67;;;5.37;;
24159;SDS011;62385;41.594;23.808;2022-12-16T06:43:48;13.77;;;6.80;;
24159;SDS011;62385;41.594;23.808;2022-12-16T06:46:32;9.17;;;5.00;;
24159;SDS011;62385;41.594;23.808;2022-12-16T06:49:16;12.97;;;7.80;;
24159;SDS011;62385;41.594;23.808;2022-12-16T06:52:00;29.67;;;9.63;;
24159;SDS011;62385;41.594;23.808;2022-12-16T06:54:44;52.50;;;19.27;;
24159;SDS011;62385;41.594;23.808;2022-12-16T06:57:28;33.97;;;11.40;;
24159;SDS011;62385;41.594;23.808;2022-12-16T07:00:14;19.90;;;7.23;;
24159;SDS011;62385;41.594;23.808;2022-12-16T07:02:58;42.47;;;14.20;;
24159;SDS011;62385;41.594;23.808;2022-12-16T07:05:42;73.97;;;18.90;;
24159;SDS011;62385;41.594;23.808;2022-12-16T07:08:26;75.73;;;20.57;;
24159;SDS011;62385;41.594;23.808;2022-12-16T07:11:10;18.97;;;8.70;;
24159;SDS011;62385;41.594;23.808;2022-12-16T07:13:54;48.80;;;13.13;;
24159;SDS011;62385;41.594;23.808;2022-12-16T07:16:38;12.93;;;7.63;;
24159;SDS011;62385;41.594;23.808;2022-12-16T07:19:23;13.03;;;5.53;;
24159;SDS011;62385;41.594;23.808;2022-12-16T07:22:26;12.40;;;5.50;;
24159;SDS011;62385;41.594;23.808;2022-12-16T07:25:11;12.87;;;5.77;;
24159;SDS011;62385;41.594;23.808;2022-12-16T07:27:56;20.93;;;7.10;;
24159;SDS011;62385;41.594;23.808;2022-12-16T07:30:41;11.50;;;7.30;;
24159;SDS011;62385;41.594;23.808;2022-12-16T07:33:26;14.87;;;5.57;;
24159;SDS011;62385;41.594;23.808;2022-12-16T07:36:10;19.73;;;6.00;;
24159;SDS011;62385;41.594;23.808;2022-12-16T07:38:55;26.87;;;7.47;;
24159;SDS011;62385;41.594;23.808;2022-12-16T07:41:41;13.03;;;6.97;;
24159;SDS011;62385;41.594;23.808;2022-12-16T07:44:25;12.73;;;6.50;;
24159;SDS011;62385;41.594;23.808;2022-12-16T07:47:09;10.53;;;5.70;;
24159;SDS011;62385;41.594;23.808;2022-12-16T07:49:53;18.50;;;6.90;;
24159;SDS011;62385;41.594;23.808;2022-12-16T07:52:38;9.15;;;4.95;;
24159;SDS011;62385;41.594;23.808;2022-12-16T07:55:22;5.47;;;4.27;;
24159;SDS011;62385;41.594;23.808;2022-12-16T07:58:07;8.25;;;4.30;;
24159;SDS011;62385;41.594;23.808;2022-12-16T08:00:53;5.93;;;3.75;;
24159;SDS011;62385;41.594;23.808;2022-12-16T08:03:37;7.57;;;4.53;;
24159;SDS011;62385;41.594;23.808;2022-12-16T08:06:22;12.23;;;5.13;;
24159;SDS011;62385;41.594;23.808;2022-12-16T08:09:06;18.30;;;8.90;;
24159;SDS011;62385;41.594;23.808;2022-12-16T08:11:51;12.23;;;6.95;;
24159;SDS011;62385;41.594;23.808;2022-12-16T08:14:35;14.60;;;7.65;;
24159;SDS011;62385;41.594;23.808;2022-12-16T08:17:40;14.40;;;8.30;;
24159;SDS011;62385;41.594;23.808;2022-12-16T08:20:32;12.38;;;6.25;;
24159;SDS011;62385;41.594;23.808;2022-12-16T08:23:16;6.23;;;3.57;;
24159;SDS011;62385;41.594;23.808;2022-12-16T08:26:00;9.00;;;6.30;;
24159;SDS011;62385;41.594;23.808;2022-12-16T08:28:44;8.53;;;3.80;;
24159;SDS011;62385;41.594;23.808;2022-12-16T08:31:29;8.40;;;5.13;;
24159;SDS011;62385;41.594;23.808;2022-12-16T08:34:14;6.67;;;3.73;;
24159;SDS011;62385;41.594;23.808;2022-12-16T08:36:58;4.27;;;3.57;;
24159;SDS011;62385;41.594;23.808;2022-12-16T08:39:42;10.97;;;4.50;;
24159;SDS011;62385;41.594;23.808;2022-12-16T08:42:28;15.67;;;8.90;;
24159;SDS011;62385;41.594;23.808;2022-12-16T08:45:13;15.23;;;8.47;;
24159;SDS011;62385;41.594;23.808;2022-12-16T08:47:58;17.23;;;6.07;;
24159;SDS011;62385;41.594;23.808;2022-12-16T08:50:42;9.57;;;4.57;;
24159;SDS011;62385;41.594;23.808;2022-12-16T08:53:26;8.83;;;3.57;;
24159;SDS011;62385;41.594;23.808;2022-12-16T08:56:11;18.03;;;7.60;;
24159;SDS011;62385;41.594;23.808;2022-12-16T08:58:57;6.77;;;4.23;;
24159;SDS011;62385;41.594;23.808;2022-12-16T09:01:41;18.13;;;9.17;;
24159;SDS011;62385;41.594;23.808;2022-12-16T09:04:25;9.50;;;5.27;;
24159;SDS011;62385;41.594;23.808;2022-12-16T09:07:28;10.73;;;4.87;;
24159;SDS011;62385;41.594;23.808;2022-12-16T09:10:12;16.53;;;6.00;;
24159;SDS011;62385;41.594;23.808;2022-12-16T09:13:09;8.67;;;4.40;;
24159;SDS011;62385;41.594;23.808;2022-12-16T09:15:56;5.50;;;3.40;;
24159;SDS011;62385;41.594;23.808;2022-12-16T09:18:41;6.57;;;3.07;;
24159;SDS011;62385;41.594;23.808;2022-12-16T09:21:25;5.47;;;3.37;;
24159;SDS011;62385;41.594;23.808;2022-12-16T09:24:09;10.07;;;4.73;;
24159;SDS011;62385;41.594;23.808;2022-12-16T09:26:53;5.40;;;2.73;;
24159;SDS011;62385;41.594;23.808;2022-12-16T09:29:37;4.50;;;2.30;;
24159;SDS011;62385;41.594;23.808;2022-12-16T09:32:21;3.90;;;2.73;;
24159;SDS011;62385;41.594;23.808;2022-12-16T09:35:07;3.33;;;1.93;;
24159;SDS011;62385;41.594;23.808;2022-12-16T09:37:52;3.20;;;2.07;;
24159;SDS011;62385;41.594;23.808;2022-12-16T09:40:37;4.17;;;2.13;;
24159;SDS011;62385;41.594;23.808;2022-12-16T09:46:52;9.43;;;2.57;;
24159;SDS011;62385;41.594;23.808;2022-12-16T09:49:54;6.93;;;3.03;;
24159;SDS011;62385;41.594;23.808;2022-12-16T09:52:43;15.07;;;3.95;;
24159;SDS011;62385;41.594;23.808;2022-12-16T09:55:38;2.17;;;1.50;;
24159;SDS011;62385;41.594;23.808;2022-12-16T09:58:28;2.17;;;1.57;;
24159;SDS011;62385;41.594;23.808;2022-12-16T10:01:17;11.17;;;3.63;;
24159;SDS011;62385;41.594;23.808;2022-12-16T10:04:23;4.20;;;2.63;;
24159;SDS011;62385;41.594;23.808;2022-12-16T10:07:10;4.80;;;1.85;;
24159;SDS011;62385;41.594;23.808;2022-12-16T10:13:21;9.40;;;4.43;;
24159;SDS011;62385;41.594;23.808;2022-12-16T10:19:22;2.13;;;1.97;;
24159;SDS011;62385;41.594;23.808;2022-12-16T10:28:26;3.43;;;2.07;;
24159;SDS011;62385;41.594;23.808;2022-12-16T10:31:16;2.07;;;1.27;;
24159;SDS011;62385;41.594;23.808;2022-12-16T10:34:00;8.60;;;3.43;;
24159;SDS011;62385;41.594;23.808;2022-12-16T10:36:45;10.53;;;3.53;;
24159;SDS011;62385;41.594;23.808;2022-12-16T10:39:34;8.75;;;4.25;;
24159;SDS011;62385;41.594;23.808;2022-12-16T10:42:28;4.20;;;2.23;;
24159;SDS011;62385;41.594;23.808;2022-12-16T10:48:23;2.57;;;2.00;;
24159;SDS011;62385;41.594;23.808;2022-12-16T10:51:11;16.77;;;7.07;;
24159;SDS011;62385;41.594;23.808;2022-12-16T10:54:00;7.70;;;6.20;;
24159;SDS011;62385;41.594;23.808;2022-12-16T10:57:23;2.50;;;2.07;;
24159;SDS011;62385;41.594;23.808;2022-12-16T11:00:18;1.57;;;1.40;;
24159;SDS011;62385;41.594;23.808;2022-12-16T11:03:39;3.53;;;1.77;;
24159;SDS011;62385;41.594;23.808;2022-12-16T11:06:25;1.70;;;1.33;;
24159;SDS011;62385;41.594;23.808;2022-12-16T11:09:21;2.90;;;1.45;;
24159;SDS011;62385;41.594;23.808;2022-12-16T11:15:19;2.63;;;1.80;;
24159;SDS011;62385;41.594;23.808;2022-12-16T11:18:16;1.53;;;1.43;;
24159;SDS011;62385;41.594;23.808;2022-12-16T11:21:21;4.75;;;1.75;;
24159;SDS011;62385;41.594;23.808;2022-12-16T11:26:54;5.00;;;3.63;;
24159;SDS011;62385;41.594;23.808;2022-12-16T11:29:57;4.35;;;3.38;;
24159;SDS011;62385;41.594;23.808;2022-12-16T11:32:46;4.57;;;2.50;;
24159;SDS011;62385;41.594;23.808;2022-12-16T11:35:40;7.03;;;3.95;;
24159;SDS011;62385;41.594;23.808;2022-12-16T11:38:47;11.75;;;3.53;;
24159;SDS011;62385;41.594;23.808;2022-12-16T11:41:36;4.80;;;2.60;;
24159;SDS011;62385;41.594;23.808;2022-12-16T11:44:28;8.95;;;2.28;;
24159;SDS011;62385;41.594;23.808;2022-12-16T11:47:22;5.78;;;2.42;;
24159;SDS011;62385;41.594;23.808;2022-12-16T11:50:15;3.80;;;2.50;;
24159;SDS011;62385;41.594;23.808;2022-12-16T11:53:01;8.15;;;3.15;;
24159;SDS011;62385;41.594;23.808;2022-12-16T11:55:50;5.78;;;2.38;;
24159;SDS011;62385;41.594;23.808;2022-12-16T11:58:47;4.13;;;2.35;;
24159;SDS011;62385;41.594;23.808;2022-12-16T12:01:38;3.25;;;2.05;;
24159;SDS011;62385;41.594;23.808;2022-12-16T12:04:23;3.08;;;2.13;;
24159;SDS011;62385;41.594;23.808;2022-12-16T12:23:14;2.90;;;0.90;;
24159;SDS011;62385;41.594;23.808;2022-12-16T12:26:12;2.13;;;1.50;;
24159;SDS011;62385;41.594;23.808;2022-12-16T12:38:25;2.63;;;2.25;;
24159;SDS011;62385;41.594;23.808;2022-12-16T12:41:26;3.90;;;2.15;;
24159;SDS011;62385;41.594;23.808;2022-12-16T12:44:34;3.88;;;2.20;;
24159;SDS011;62385;41.594;23.808;2022-12-16T12:47:34;2.40;;;2.13;;
24159;SDS011;62385;41.594;23.808;2022-12-16T12:50:28;2.50;;;1.42;;
24159;SDS011;62385;41.594;23.808;2022-12-16T12:53:48;3.13;;;1.58;;
24159;SDS011;62385;41.594;23.808;2022-12-16T12:56:47;3.75;;;1.95;;
24159;SDS011;62385;41.594;23.808;2022-12-16T13:02:42;2.05;;;1.08;;
24159;SDS011;62385;41.594;23.808;2022-12-16T13:05:27;4.13;;;3.05;;
24159;SDS011;62385;41.594;23.808;2022-12-16T13:11:15;2.55;;;2.05;;
24159;SDS011;62385;41.594;23.808;2022-12-16T13:14:00;4.80;;;2.25;;
24159;SDS011;62385;41.594;23.808;2022-12-16T13:22:27;4.68;;;3.15;;
24159;SDS011;62385;41.594;23.808;2022-12-16T13:25:31;5.93;;;2.47;;
24159;SDS011;62385;41.594;23.808;2022-12-16T13:28:34;3.50;;;1.67;;
24159;SDS011;62385;41.594;23.808;2022-12-16T13:31:24;3.38;;;2.35;;
24159;SDS011;62385;41.594;23.808;2022-12-16T13:37:01;8.05;;;2.80;;
24159;SDS011;62385;41.594;23.808;2022-12-16T13:40:11;4.60;;;2.90;;
24159;SDS011;62385;41.594;23.808;2022-12-16T13:43:00;5.43;;;3.08;;
24159;SDS011;62385;41.594;23.808;2022-12-16T13:46:17;4.38;;;2.75;;
24159;SDS011;62385;41.594;23.808;2022-12-16T13:48:56;3.97;;;2.00;;
24159;SDS011;62385;41.594;23.808;2022-12-16T13:52:20;7.28;;;3.22;;
24159;SDS011;62385;41.594;23.808;2022-12-16T13:55:14;4.10;;;2.47;;
24159;SDS011;62385;41.594;23.808;2022-12-16T13:58:04;3.75;;;2.35;;
24159;SDS011;62385;41.594;23.808;2022-12-16T14:00:56;6.97;;;2.67;;
24159;SDS011;62385;41.594;23.808;2022-12-16T14:03:48;4.90;;;3.05;;
24159;SDS011;62385;41.594;23.808;2022-12-16T14:06:34;6.68;;;3.05;;
24159;SDS011;62385;41.594;23.808;2022-12-16T14:16:07;3.83;;;2.30;;
24159;SDS011;62385;41.594;23.808;2022-12-16T14:21:55;4.70;;;2.50;;
24159;SDS011;62385;41.594;23.808;2022-12-16T14:24:42;7.88;;;3.20;;
24159;SDS011;62385;41.594;23.808;2022-12-16T14:27:27;7.97;;;4.47;;
24159;SDS011;62385;41.594;23.808;2022-12-16T14:30:19;7.65;;;4.25;;
24159;SDS011;62385;41.594;23.808;2022-12-16T14:33:22;9.13;;;5.30;;
24159;SDS011;62385;41.594;23.808;2022-12-16T14:36:27;6.70;;;4.72;;
24159;SDS011;62385;41.594;23.808;2022-12-16T14:39:12;8.77;;;4.45;;
24159;SDS011;62385;41.594;23.808;2022-12-16T14:42:18;15.55;;;7.28;;
24159;SDS011;62385;41.594;23.808;2022-12-16T14:45:19;10.93;;;6.50;;
24159;SDS011;62385;41.594;23.808;2022-12-16T14:54:20;16.57;;;4.30;;
24159;SDS011;62385;41.594;23.808;2022-12-16T14:57:04;10.60;;;7.72;;
24159;SDS011;62385;41.594;23.808;2022-12-16T15:00:03;9.40;;;6.45;;
24159;SDS011;62385;41.594;23.808;2022-12-16T15:02:50;7.97;;;5.30;;
24159;SDS011;62385;41.594;23.808;2022-12-16T15:05:38;7.05;;;3.72;;
24159;SDS011;62385;41.594;23.808;2022-12-16T15:08:48;4.82;;;3.15;;
24159;SDS011;62385;41.594;23.808;2022-12-16T15:11:35;10.55;;;5.18;;
24159;SDS011;62385;41.594;23.808;2022-12-16T15:14:23;11.27;;;4.63;;
24159;SDS011;62385;41.594;23.808;2022-12-16T15:17:18;6.72;;;4.25;;
24159;SDS011;62385;41.594;23.808;2022-12-16T15:20:21;12.10;;;6.53;;
24159;SDS011;62385;41.594;23.808;2022-12-16T15:23:29;7.15;;;4.53;;
24159;SDS011;62385;41.594;23.808;2022-12-16T15:26:16;11.07;;;5.68;;
24159;SDS011;62385;41.594;23.808;2022-12-16T15:35:29;14.02;;;7.53;;
24159;SDS011;62385;41.594;23.808;2022-12-16T15:41:21;22.30;;;9.23;;
24159;SDS011;62385;41.594;23.808;2022-12-16T15:44:12;11.73;;;6.60;;
24159;SDS011;62385;41.594;23.808;2022-12-16T15:46:58;14.90;;;6.87;;
24159;SDS011;62385;41.594;23.808;2022-12-16T15:49:43;4.63;;;3.60;;
24159;SDS011;62385;41.594;23.808;2022-12-16T15:52:37;8.02;;;4.68;;
24159;SDS011;62385;41.594;23.808;2022-12-16T15:55:25;9.87;;;4.50;;
24159;SDS011;62385;41.594;23.808;2022-12-16T15:58:20;18.15;;;5.70;;
24159;SDS011;62385;41.594;23.808;2022-12-16T16:01:08;10.88;;;4.28;;
24159;SDS011;62385;41.594;23.808;2022-12-16T16:03:54;17.05;;;9.00;;
24159;SDS011;62385;41.594;23.808;2022-12-16T16:06:50;9.43;;;5.93;;
24159;SDS011;62385;41.594;23.808;2022-12-16T16:09:37;9.27;;;5.07;;
24159;SDS011;62385;41.594;23.808;2022-12-16T16:12:23;7.32;;;4.22;;
24159;SDS011;62385;41.594;23.808;2022-12-16T16:15:09;13.80;;;6.53;;
24159;SDS011;62385;41.594;23.808;2022-12-16T16:17:56;12.35;;;7.53;;
24159;SDS011;62385;41.594;23.808;2022-12-16T16:20:44;15.37;;;7.33;;
24159;SDS011;62385;41.594;23.808;2022-12-16T16:23:30;30.40;;;10.93;;
24159;SDS011;62385;41.594;23.808;2022-12-16T16:26:16;12.52;;;7.35;;
24159;SDS011;62385;41.594;23.808;2022-12-16T16:29:02;19.03;;;8.43;;
24159;SDS011;62385;41.594;23.808;2022-12-16T16:31:47;11.30;;;5.75;;
24159;SDS011;62385;41.594;23.808;2022-12-16T16:34:31;10.27;;;4.60;;
24159;SDS011;62385;41.594;23.808;2022-12-16T16:37:16;11.52;;;6.25;;
24159;SDS011;62385;41.594;23.808;2022-12-16T16:40:10;11.57;;;4.93;;
24159;SDS011;62385;41.594;23.808;2022-12-16T16:43:03;12.60;;;5.33;;
24159;SDS011;62385;41.594;23.808;2022-12-16T16:45:51;8.73;;;4.97;;
24159;SDS011;62385;41.594;23.808;2022-12-16T16:48:37;9.30;;;5.30;;
24159;SDS011;62385;41.594;23.808;2022-12-16T16:51:22;7.47;;;5.05;;
24159;SDS011;62385;41.594;23.808;2022-12-16T16:54:19;8.90;;;4.90;;
24159;SDS011;62385;41.594;23.808;2022-12-16T16:57:03;4.90;;;3.33;;
24159;SDS011;62385;41.594;23.808;2022-12-16T17:00:07;6.60;;;3.53;;
24159;SDS011;62385;41.594;23.808;2022-12-16T17:03:12;11.30;;;5.03;;
24159;SDS011;62385;41.594;23.808;2022-12-16T17:05:57;13.50;;;6.73;;
24159;SDS011;62385;41.594;23.808;2022-12-16T17:08:42;11.67;;;3.63;;
24159;SDS011;62385;41.594;23.808;2022-12-16T17:11:26;9.40;;;5.50;;
24159;SDS011;62385;41.594;23.808;2022-12-16T17:14:13;9.53;;;4.90;;
24159;SDS011;62385;41.594;23.808;2022-12-16T17:16:58;6.57;;;3.30;;
24159;SDS011;62385;41.594;23.808;2022-12-16T17:19:42;10.40;;;3.25;;
24159;SDS011;62385;41.594;23.808;2022-12-16T17:22:27;6.13;;;2.13;;
24159;SDS011;62385;41.594;23.808;2022-12-16T17:25:11;5.70;;;3.05;;
24159;SDS011;62385;41.594;23.808;2022-12-16T17:27:57;11.18;;;4.45;;
24159;SDS011;62385;41.594;23.808;2022-12-16T17:30:41;5.95;;;3.33;;
24159;SDS011;62385;41.594;23.808;2022-12-16T17:33:26;8.68;;;3.50;;
24159;SDS011;62385;41.594;23.808;2022-12-16T17:36:11;4.18;;;2.47;;
24159;SDS011;62385;41.594;23.808;2022-12-16T17:38:56;8.55;;;4.55;;
24159;SDS011;62385;41.594;23.808;2022-12-16T17:41:41;6.88;;;3.60;;
24159;SDS011;62385;41.594;23.808;2022-12-16T17:44:25;7.00;;;5.15;;
24159;SDS011;62385;41.594;23.808;2022-12-16T17:47:09;5.97;;;3.53;;
24159;SDS011;62385;41.594;23.808;2022-12-16T17:49:53;6.77;;;5.57;;
24159;SDS011;62385;41.594;23.808;2022-12-16T17:52:37;10.82;;;7.07;;
24159;SDS011;62385;41.594;23.808;2022-12-16T17:55:22;11.32;;;6.28;;
24159;SDS011;62385;41.594;23.808;2022-12-16T17:58:07;16.35;;;6.45;;
24159;SDS011;62385;41.594;23.808;2022-12-16T18:00:51;9.95;;;5.65;;
24159;SDS011;62385;41.594;23.808;2022-12-16T18:03:35;35.83;;;18.55;;
24159;SDS011;62385;41.594;23.808;2022-12-16T18:06:20;31.30;;;15.18;;
24159;SDS011;62385;41.594;23.808;2022-12-16T18:09:04;4.88;;;3.92;;
24159;SDS011;62385;41.594;23.808;2022-12-16T18:11:48;6.82;;;3.90;;
24159;SDS011;62385;41.594;23.808;2022-12-16T18:14:32;6.25;;;4.32;;